Time;durP1;ratioP1;P1;durP2;ratioP2;P2;SDS_P1;SDS_P2;PMS_P1;PMS_P2;Temp;Humidity;BMP_temperature;BMP_pressure;BME280_temperature;BME280_humidity;BME280_pressure;Samples;Min_cycle;Max_cycle;Signal;HPM_P1;HPM_P2
2023/08/21 00:00:49;;;;;;;0.00;0.00;;;;;;;17.12;100.00;102136.41;5052264;28;20029;-51
2023/08/21 00:03:14;;;;;;;0.00;0.00;;;;;;;17.15;100.00;102130.38;5052704;28;20052;-52
2023/08/21 00:05:40;;;;;;;0.00;0.00;;;;;;;17.03;100.00;102131.84;5052976;28;20104;-52
2023/08/21 00:08:05;;;;;;;0.10;0.10;;;;;;;17.01;100.00;102127.44;5052084;28;20499;-51
2023/08/21 00:10:31;;;;;;;0.00;0.00;;;;;;;17.09;100.00;102126.78;5052435;28;20029;-50
2023/08/21 00:12:57;;;;;;;0.10;0.10;;;;;;;17.08;100.00;102127.63;5051813;28;20025;-52
2023/08/21 00:15:22;;;;;;;0.10;0.10;;;;;;;17.04;100.00;102133.63;5052611;28;20100;-52
2023/08/21 00:17:47;;;;;;;0.10;0.10;;;;;;;17.18;100.00;102127.84;5052584;28;20071;-51
2023/08/21 00:20:13;;;;;;;0.00;0.00;;;;;;;17.18;100.00;102120.88;5051496;28;20040;-51
2023/08/21 00:22:38;;;;;;;0.00;0.00;;;;;;;17.30;100.00;102130.72;5052704;28;20063;-52
2023/08/21 00:25:04;;;;;;;0.03;0.03;;;;;;;17.44;100.00;102131.91;5052623;28;20025;-52
2023/08/21 00:27:30;;;;;;;0.00;0.00;;;;;;;17.51;100.00;102130.31;5051474;28;20045;-51
2023/08/21 00:29:55;;;;;;;0.00;0.00;;;;;;;17.38;100.00;102118.75;5052816;28;20021;-51
2023/08/21 00:32:20;;;;;;;0.00;0.00;;;;;;;17.25;100.00;102121.94;5052338;28;20492;-52
2023/08/21 00:34:46;;;;;;;0.10;0.10;;;;;;;17.07;100.00;102112.84;5051639;28;20090;-52
2023/08/21 00:37:11;;;;;;;0.00;0.00;;;;;;;16.97;100.00;102118.69;5052573;28;20032;-51
2023/08/21 00:39:36;;;;;;;0.00;0.00;;;;;;;16.92;100.00;102118.56;5052503;28;20021;-52
2023/08/21 00:42:02;;;;;;;0.08;0.08;;;;;;;16.91;100.00;102115.94;5051701;28;20100;-52
2023/08/21 00:44:27;;;;;;;0.00;0.00;;;;;;;16.92;100.00;102112.47;5052315;28;20379;-52
2023/08/21 00:46:53;;;;;;;0.00;0.00;;;;;;;16.88;100.00;102115.84;5053608;28;20041;-50
2023/08/21 00:49:19;;;;;;;0.10;0.10;;;;;;;16.77;100.00;102112.94;5055268;28;20472;-51
2023/08/21 00:51:45;;;;;;;0.08;0.08;;;;;;;16.69;100.00;102115.38;5056058;28;20035;-51
2023/08/21 00:54:10;;;;;;;0.00;0.00;;;;;;;16.59;100.00;102115.97;5056255;28;20029;-52
2023/08/21 00:56:36;;;;;;;0.00;0.00;;;;;;;16.59;100.00;102118.59;5055177;28;20104;-52
2023/08/21 00:59:01;;;;;;;0.00;0.00;;;;;;;16.58;100.00;102115.13;5056039;28;20021;-51
2023/08/21 01:01:28;;;;;;;0.08;0.08;;;;;;;16.60;100.00;102125.56;5055900;28;20110;-51
2023/08/21 01:03:53;;;;;;;0.00;0.00;;;;;;;16.62;100.00;102124.75;5055528;28;20024;-52
2023/08/21 01:06:19;;;;;;;0.00;0.00;;;;;;;16.74;100.00;102129.38;5055674;28;20029;-52
2023/08/21 01:08:50;;;;;;;0.10;0.10;;;;;;;16.73;100.00;102129.34;5055965;28;20492;-51
2023/08/21 01:11:24;;;;;;;0.00;0.00;;;;;;;16.82;100.00;102123.50;5054819;28;20029;-52
2023/08/21 01:13:55;;;;;;;0.00;0.00;;;;;;;16.84;100.00;102117.47;5056070;28;20029;-52
2023/08/21 01:16:22;;;;;;;0.10;0.10;;;;;;;16.82;100.00;102118.28;5054967;28;20029;-53
2023/08/21 01:18:49;;;;;;;0.10;0.10;;;;;;;16.86;100.00;102122.72;5055936;28;20143;-52
2023/08/21 01:21:15;;;;;;;0.00;0.00;;;;;;;16.91;100.00;102118.53;5055503;28;20036;-50
2023/08/21 01:23:44;;;;;;;0.10;0.10;;;;;;;16.91;100.00;102118.53;5055089;28;20029;-50
2023/08/21 01:26:09;;;;;;;0.00;0.00;;;;;;;16.87;100.00;102108.84;5055569;28;20048;-50
2023/08/21 01:28:35;;;;;;;0.00;0.00;;;;;;;16.70;100.00;102106.72;5055379;28;20017;-52
2023/08/21 01:31:21;;;;;;;0.00;0.00;;;;;;;16.63;100.00;102108.28;5054943;28;20035;-51
2023/08/21 01:33:52;;;;;;;0.00;0.00;;;;;;;16.37;100.00;102097.25;5055560;28;20071;-48
2023/08/21 01:36:17;;;;;;;0.00;0.00;;;;;;;16.19;100.00;102094.16;5055106;28;20017;-52
2023/08/21 01:38:44;;;;;;;0.00;0.00;;;;;;;16.09;100.00;102096.50;5054837;28;20044;-52
2023/08/21 01:41:09;;;;;;;0.10;0.10;;;;;;;15.98;100.00;102097.94;5055363;28;20381;-52
2023/08/21 01:43:34;;;;;;;0.10;0.10;;;;;;;15.94;100.00;102101.28;5054973;28;20021;-52
2023/08/21 01:46:02;;;;;;;0.10;0.10;;;;;;;15.86;100.00;102102.81;5054656;28;20021;-52
2023/08/21 01:48:27;;;;;;;0.00;0.00;;;;;;;15.80;100.00;102104.38;5054877;28;20491;-52
2023/08/21 01:50:52;;;;;;;0.10;0.10;;;;;;;15.76;100.00;102102.53;5055129;28;20060;-52
2023/08/21 01:53:18;;;;;;;0.10;0.10;;;;;;;15.76;100.00;102101.63;5054255;28;20432;-51
2023/08/21 01:55:43;;;;;;;0.00;0.00;;;;;;;15.65;100.00;102101.34;5055309;28;20029;-52
2023/08/21 01:58:08;;;;;;;0.10;0.10;;;;;;;15.69;100.00;102099.72;5054260;28;20019;-52
2023/08/21 02:00:33;;;;;;;0.03;0.03;;;;;;;15.70;100.00;102104.03;5053859;28;20480;-52
2023/08/21 02:02:59;;;;;;;0.10;0.10;;;;;;;15.66;100.00;102104.81;5054897;28;20056;-51
2023/08/21 02:05:24;;;;;;;0.10;0.10;;;;;;;15.64;100.00;102110.81;5053977;28;20369;-52
2023/08/21 02:07:49;;;;;;;0.10;0.10;;;;;;;15.62;100.00;102117.72;5054998;28;20021;-51
2023/08/21 02:10:15;;;;;;;0.10;0.10;;;;;;;15.57;100.00;102123.59;5054763;28;20031;-51
2023/08/21 02:12:40;;;;;;;0.00;0.00;;;;;;;15.58;100.00;102118.47;5054054;28;20808;-51
2023/08/21 02:15:06;;;;;;;0.10;0.10;;;;;;;15.58;100.00;102117.56;5055004;28;20112;-52
2023/08/21 02:17:32;;;;;;;0.10;0.10;;;;;;;15.54;100.00;102121.78;5054410;28;20060;-51
2023/08/21 02:19:57;;;;;;;0.03;0.03;;;;;;;15.50;100.00;102116.47;5053999;28;20021;-52
2023/08/21 02:22:22;;;;;;;0.10;0.10;;;;;;;15.39;100.00;102122.22;5054207;28;20029;-52
2023/08/21 02:24:48;;;;;;;0.10;0.10;;;;;;;15.34;100.00;102126.41;5054624;28;20075;-51
2023/08/21 02:27:13;;;;;;;0.10;0.10;;;;;;;15.33;100.00;102119.44;5053250;28;20048;-52
2023/08/21 02:29:38;;;;;;;0.10;0.10;;;;;;;15.33;100.00;102123.75;5054565;28;20096;-51
2023/08/21 02:32:04;;;;;;;0.00;0.00;;;;;;;15.30;100.00;102116.75;5054544;28;20103;-51
2023/08/21 02:34:29;;;;;;;0.10;0.10;;;;;;;15.25;100.00;102126.13;5053164;28;20057;-51
2023/08/21 02:36:55;;;;;;;0.00;0.00;;;;;;;15.20;100.00;102119.91;5054228;28;20033;-51
2023/08/21 02:39:20;;;;;;;0.00;0.00;;;;;;;15.19;100.00;102118.16;5053946;28;20460;-50
2023/08/21 02:41:45;;;;;;;0.10;0.10;;;;;;;15.18;100.00;102122.44;5053351;28;20037;-50
2023/08/21 02:44:11;;;;;;;0.00;0.00;;;;;;;15.02;100.00;102121.09;5054222;28;20017;-52
2023/08/21 02:46:36;;;;;;;0.00;0.00;;;;;;;14.97;100.00;102118.31;5054049;28;20074;-50
2023/08/21 02:49:02;;;;;;;0.10;0.10;;;;;;;14.87;100.00;102120.59;5053241;28;20052;-51
2023/08/21 02:51:28;;;;;;;0.10;0.10;;;;;;;14.83;100.00;102124.81;5053565;28;20070;-52
2023/08/21 02:53:53;;;;;;;0.10;0.10;;;;;;;14.81;100.00;102122.16;5054173;28;20060;-52
2023/08/21 02:56:18;;;;;;;0.03;0.03;;;;;;;14.73;100.00;102121.03;5053004;28;20017;-50
2023/08/21 02:58:44;;;;;;;0.00;0.00;;;;;;;14.70;100.00;102118.31;5053929;28;20380;-50
2023/08/21 03:01:09;;;;;;;0.10;0.10;;;;;;;14.76;100.00;102113.34;5053878;28;20380;-51
2023/08/21 03:03:35;;;;;;;0.10;0.10;;;;;;;14.62;100.00;102114.56;5052729;28;20445;-52
2023/08/21 03:06:01;;;;;;;0.10;0.10;;;;;;;14.57;100.00;102113.53;5053844;28;20075;-51
2023/08/21 03:08:26;;;;;;;0.10;0.10;;;;;;;14.52;100.00;102104.72;5053569;28;20441;-52
2023/08/21 03:10:51;;;;;;;0.10;0.10;;;;;;;14.57;100.00;102109.22;5052934;28;20025;-51
2023/08/21 03:13:17;;;;;;;0.00;0.00;;;;;;;14.62;100.00;102111.97;5053333;28;20028;-52
2023/08/21 03:15:42;;;;;;;0.10;0.10;;;;;;;14.60;100.00;102111.03;5052734;28;20033;-51
2023/08/21 03:18:07;;;;;;;0.00;0.00;;;;;;;14.52;100.00;102113.38;5053426;28;20021;-51
2023/08/21 03:20:33;;;;;;;0.08;0.08;;;;;;;14.58;100.00;102116.19;5053174;28;20112;-51
2023/08/21 03:22:58;;;;;;;0.10;0.10;;;;;;;14.57;100.00;102110.94;5052859;28;20021;-51
2023/08/21 03:25:23;;;;;;;0.10;0.10;;;;;;;14.54;100.00;102126.38;5052854;28;20112;-51
2023/08/21 03:27:49;;;;;;;0.10;0.10;;;;;;;14.48;100.00;102122.75;5053256;28;20067;-52
2023/08/21 03:30:15;;;;;;;0.10;0.10;;;;;;;14.57;100.00;102126.50;5052324;28;20060;-50
2023/08/21 03:32:40;;;;;;;0.10;0.10;;;;;;;14.62;100.00;102124.94;5053218;28;20029;-51
2023/08/21 03:35:06;;;;;;;0.10;0.10;;;;;;;14.54;100.00;102126.38;5053088;28;20101;-51
2023/08/21 03:37:31;;;;;;;0.03;0.03;;;;;;;14.63;100.00;102116.34;5052310;28;20035;-50
2023/08/21 03:39:57;;;;;;;0.10;0.10;;;;;;;14.64;100.00;102118.13;5053295;28;20024;-51
2023/08/21 03:42:22;;;;;;;0.00;0.00;;;;;;;14.60;100.00;102121.41;5052734;28;20056;-51
2023/08/21 03:44:49;;;;;;;0.10;0.10;;;;;;;14.67;100.00;102127.72;5052374;28;20094;-51
2023/08/21 03:47:18;;;;;;;0.10;0.10;;;;;;;14.71;100.00;102120.09;5053156;28;20028;-50
2023/08/21 03:49:43;;;;;;;0.10;0.10;;;;;;;14.68;100.00;102114.81;5053201;28;20079;-51
2023/08/21 03:52:08;;;;;;;0.10;0.10;;;;;;;14.67;100.00;102110.44;5052100;28;20033;-52
2023/08/21 03:54:34;;;;;;;0.10;0.10;;;;;;;14.70;100.00;102110.53;5052881;28;20464;-52
2023/08/21 03:56:59;;;;;;;0.10;0.10;;;;;;;14.76;100.00;102112.47;5052987;28;20013;-52
2023/08/21 03:59:27;;;;;;;0.10;0.10;;;;;;;14.75;100.00;102114.16;5051885;28;20013;-52
2023/08/21 04:01:53;;;;;;;0.10;0.10;;;;;;;14.80;100.00;102115.19;5052869;28;20033;-52
2023/08/21 04:04:18;;;;;;;0.00;0.00;;;;;;;14.80;100.00;102117.78;5052426;28;20036;-51
2023/08/21 04:06:44;;;;;;;0.10;0.10;;;;;;;14.94;100.00;102110.47;5052281;28;20021;-51
2023/08/21 04:09:10;;;;;;;0.10;0.10;;;;;;;14.89;100.00;102113.75;5052820;28;20017;-51
2023/08/21 04:11:35;;;;;;;0.00;0.00;;;;;;;14.97;100.00;102112.28;5052521;28;20017;-52
2023/08/21 04:14:01;;;;;;;0.10;0.10;;;;;;;14.88;100.00;102112.84;5051999;28;20376;-52
2023/08/21 04:16:28;;;;;;;0.10;0.10;;;;;;;15.00;100.00;102117.53;5052329;28;20029;-50
2023/08/21 04:18:53;;;;;;;0.10;0.10;;;;;;;14.85;100.00;102123.16;5052580;28;20017;-52
2023/08/21 04:21:18;;;;;;;0.10;0.10;;;;;;;14.74;100.00;102122.78;5051619;28;20032;-52
2023/08/21 04:23:45;;;;;;;0.10;0.10;;;;;;;14.68;100.00;102113.91;5056740;28;20037;-52
2023/08/21 04:26:11;;;;;;;0.10;0.10;;;;;;;14.62;100.00;102124.94;5055772;28;20037;-52
2023/08/21 04:28:37;;;;;;;0.10;0.10;;;;;;;14.56;100.00;102123.00;5056401;28;20047;-51
2023/08/21 04:31:06;;;;;;;0.10;0.10;;;;;;;14.46;100.00;102134.81;5056585;28;20027;-52
2023/08/21 04:33:32;;;;;;;0.03;0.03;;;;;;;14.63;100.00;102129.31;5055439;28;20135;-48
2023/08/21 04:35:57;;;;;;;0.03;0.03;;;;;;;14.72;100.00;102128.75;5056718;28;20100;-52
2023/08/21 04:38:23;;;;;;;0.10;0.10;;;;;;;14.78;100.00;102134.16;5056101;28;20020;-51
2023/08/21 04:40:48;;;;;;;0.10;0.10;;;;;;;14.96;100.00;102136.47;5055722;28;20035;-52
2023/08/21 04:43:14;;;;;;;0.10;0.10;;;;;;;15.06;100.00;102135.91;5056108;28;20464;-52
2023/08/21 04:45:49;;;;;;;0.10;0.10;;;;;;;15.23;100.00;102140.78;5056437;28;20361;-52
2023/08/21 04:48:14;;;;;;;0.10;0.10;;;;;;;15.32;100.00;102135.84;5055463;28;20021;-51
2023/08/21 04:50:40;;;;;;;0.10;0.10;;;;;;;15.44;100.00;102131.03;5056372;28;20032;-52
2023/08/21 04:53:05;;;;;;;0.10;0.10;;;;;;;15.46;100.00;102137.16;5056431;28;20040;-51
2023/08/21 04:55:30;;;;;;;0.10;0.10;;;;;;;15.52;100.00;102140.75;5055049;28;20514;-52
2023/08/21 04:57:56;;;;;;;0.10;0.10;;;;;;;15.51;100.00;102144.22;5056117;28;20037;-52
2023/08/21 05:00:21;;;;;;;0.10;0.10;;;;;;;15.41;100.00;102143.91;5055986;28;20021;-51
2023/08/21 05:02:46;;;;;;;0.03;0.03;;;;;;;15.41;100.00;102149.13;5055353;28;20431;-51
2023/08/21 05:05:12;;;;;;;0.10;0.10;;;;;;;15.41;100.00;102153.44;5055976;28;20029;-52
2023/08/21 05:07:37;;;;;;;0.10;0.10;;;;;;;15.53;100.00;102160.72;5056057;28;20435;-51
2023/08/21 05:10:03;;;;;;;0.00;0.00;;;;;;;15.62;100.00;102161.00;5055187;28;20457;-50
2023/08/21 05:12:28;;;;;;;0.10;0.10;;;;;;;15.73;100.00;102157.00;5055604;28;20107;-51
2023/08/21 05:14:54;;;;;;;0.10;0.10;;;;;;;15.69;100.00;102155.16;5055682;28;20354;-51
2023/08/21 05:17:19;;;;;;;0.00;0.00;;;;;;;15.73;100.00;102154.41;5054987;28;20017;-52
2023/08/21 05:19:44;;;;;;;0.10;0.10;;;;;;;15.74;100.00;102153.56;5055692;28;20472;-51
2023/08/21 05:22:10;;;;;;;0.00;0.00;;;;;;;15.75;100.00;102157.03;5055537;28;20028;-52
2023/08/21 05:24:35;;;;;;;0.10;0.10;;;;;;;15.73;100.00;102158.72;5054761;28;20037;-51
2023/08/21 05:27:00;;;;;;;0.00;0.00;;;;;;;15.70;100.00;102161.22;5055450;28;20120;-50
2023/08/21 05:29:26;;;;;;;0.10;0.10;;;;;;;15.66;100.00;102165.47;5054579;28;20069;-52
2023/08/21 05:31:51;;;;;;;0.10;0.10;;;;;;;15.66;100.00;102165.47;5055380;28;20103;-47
2023/08/21 05:34:16;;;;;;;0.10;0.10;;;;;;;15.69;100.00;102162.94;5054034;28;20079;-52
2023/08/21 05:36:42;;;;;;;0.10;0.10;;;;;;;15.73;100.00;102170.00;5054914;28;20036;-50
2023/08/21 05:39:07;;;;;;;0.10;0.10;;;;;;;15.75;100.00;102173.53;5055561;28;20032;-51
2023/08/21 05:41:33;;;;;;;0.10;0.10;;;;;;;15.86;100.00;102175.59;5055100;28;20061;-52
2023/08/21 05:43:58;;;;;;;0.00;0.00;;;;;;;15.90;100.00;102177.44;5054608;28;20032;-51
2023/08/21 05:46:23;;;;;;;0.10;0.10;;;;;;;15.88;100.00;102184.31;5054840;28;20033;-52
2023/08/21 05:48:49;;;;;;;0.10;0.10;;;;;;;15.89;100.00;102180.88;5055134;28;20023;-51
2023/08/21 05:51:14;;;;;;;0.10;0.10;;;;;;;15.86;100.00;102180.81;5054236;28;20112;-51
2023/08/21 05:53:39;;;;;;;0.10;0.10;;;;;;;15.86;100.00;102183.41;5055143;28;20029;-51
2023/08/21 05:56:05;;;;;;;0.10;0.10;;;;;;;15.85;100.00;102184.22;5054975;28;20372;-51
2023/08/21 05:58:32;;;;;;;0.10;0.10;;;;;;;15.88;100.00;102190.41;5053990;28;20017;-50
2023/08/21 06:00:58;;;;;;;0.10;0.10;;;;;;;15.89;100.00;102183.47;5054888;28;20033;-51
2023/08/21 06:03:23;;;;;;;0.10;0.10;;;;;;;15.87;100.00;102179.94;5054515;28;20029;-51
2023/08/21 06:05:49;;;;;;;0.10;0.10;;;;;;;15.89;100.00;102180.88;5054287;28;20028;-52
2023/08/21 06:08:14;;;;;;;0.10;0.10;;;;;;;15.94;100.00;102180.16;5054600;28;20384;-51
2023/08/21 06:10:39;;;;;;;0.10;0.10;;;;;;;15.98;100.00;102181.13;5054837;28;20098;-52
2023/08/21 06:13:05;;;;;;;0.10;0.10;;;;;;;16.07;100.00;102186.59;5053793;28;20476;-51
2023/08/21 06:15:30;;;;;;;0.10;0.10;;;;;;;16.18;100.00;102191.22;5054361;28;20389;-51
2023/08/21 06:17:55;;;;;;;0.10;0.10;;;;;;;16.27;100.00;102184.56;5054695;28;20102;-52
2023/08/21 06:20:24;;;;;;;0.10;0.10;;;;;;;16.35;100.00;102181.31;5053767;28;20058;-51
2023/08/21 06:22:49;;;;;;;0.00;0.00;;;;;;;16.46;100.00;102185.94;5054601;28;20024;-52
2023/08/21 06:25:14;;;;;;;0.10;0.10;;;;;;;16.59;100.00;102191.47;5054160;28;20039;-52
2023/08/21 06:27:40;;;;;;;0.10;0.10;;;;;;;16.71;100.00;102194.41;5053799;28;20017;-52
2023/08/21 06:30:06;;;;;;;0.00;0.00;;;;;;;16.81;100.00;102189.41;5054504;28;20349;-51
2023/08/21 06:32:31;;;;;;;0.10;0.10;;;;;;;16.92;100.00;102188.00;5054134;28;20040;-52
2023/08/21 06:34:56;;;;;;;0.10;0.10;;;;;;;17.01;100.00;102190.81;5053714;28;20420;-51
2023/08/21 06:37:22;;;;;;;0.00;0.00;;;;;;;17.11;100.00;102195.41;5053939;28;20025;-51
2023/08/21 06:39:47;;;;;;;0.00;0.00;;;;;;;17.21;100.00;102193.03;5053491;28;20033;-52
2023/08/21 06:42:12;;;;;;;0.10;0.10;;;;;;;17.32;100.00;102196.78;5054061;28;20028;-51
2023/08/21 06:44:38;;;;;;;0.03;0.03;;;;;;;17.46;100.00;102198.84;5053743;28;20063;-52
2023/08/21 06:47:03;;;;;;;0.10;0.10;;;;;;;17.56;100.00;102200.81;5053532;28;20350;-47
2023/08/21 06:49:28;;;;;;;0.10;0.10;;;;;;;17.63;100.00;102197.47;5053814;28;20025;-51
2023/08/21 06:51:54;;;;;;;0.00;0.00;;;;;;;17.73;100.00;102201.16;5053898;28;20025;-51
2023/08/21 06:54:19;;;;;;;0.00;0.00;;;;;;;17.86;100.00;102200.56;5053011;28;20025;-52
2023/08/21 06:56:44;;;;;;;0.00;0.00;;;;;;;18.01;100.00;102205.28;5053996;28;20099;-52
2023/08/21 06:59:10;;;;;;;0.10;0.10;;;;;;;18.14;100.00;102209.00;5053733;28;20495;-52
2023/08/21 07:01:35;;;;;;;0.00;0.00;;;;;;;18.22;100.00;102204.81;5052727;28;20037;-52
2023/08/21 07:04:00;;;;;;;0.10;0.10;;;;;;;18.37;100.00;102204.22;5053747;28;20555;-52
2023/08/21 07:06:30;;;;;;;0.00;0.00;;;;;;;18.49;100.00;102213.13;5053531;28;20035;-51
2023/08/21 07:08:56;;;;;;;0.00;0.00;;;;;;;18.66;100.00;102210.84;5052899;28;20017;-52
2023/08/21 07:11:21;;;;;;;0.00;0.00;;;;;;;18.75;100.00;102211.88;5053474;28;20021;-52
2023/08/21 07:13:46;;;;;;;0.10;0.10;;;;;;;18.94;100.00;102213.94;5053563;28;20033;-47
2023/08/21 07:16:12;;;;;;;0.00;0.00;;;;;;;19.10;100.00;102215.97;5052478;28;20021;-50
2023/08/21 07:18:38;;;;;;;0.00;0.00;;;;;;;19.18;100.00;102213.47;5053700;28;20029;-51
2023/08/21 07:21:04;;;;;;;0.10;0.10;;;;;;;19.35;100.00;102219.84;5053648;28;20031;-55
2023/08/21 07:23:31;;;;;;;0.00;0.00;;;;;;;19.55;100.00;102214.03;5052471;28;20025;-49
2023/08/21 07:25:57;;;;;;;0.10;0.10;;;;;;;19.77;100.00;102211.69;5053251;28;20473;-51
2023/08/21 07:28:22;;;;;;;0.05;0.05;;;;;;;20.00;100.00;102202.44;5053257;28;20064;-51
2023/08/21 07:30:48;;;;;;;0.00;0.00;;;;;;;20.16;100.00;102216.56;5052773;28;20079;-52
2023/08/21 07:33:13;;;;;;;0.00;0.00;;;;;;;20.19;100.00;102215.72;5053317;28;20029;-52
2023/08/21 07:35:38;;;;;;;0.00;0.00;;;;;;;20.42;100.00;102212.50;5053478;28;20112;-51
2023/08/21 07:38:04;;;;;;;0.10;0.05;;;;;;;20.68;100.00;102218.88;5052596;28;20055;-52
2023/08/21 07:40:29;;;;;;;0.00;0.00;;;;;;;20.69;100.00;102218.00;5052910;28;20452;-49
2023/08/21 07:42:54;;;;;;;0.00;0.00;;;;;;;21.07;100.00;102218.34;5052947;28;20031;-47
2023/08/21 07:45:20;;;;;;;0.00;0.00;;;;;;;21.24;100.00;102221.09;5052450;28;20025;-47
2023/08/21 07:47:45;;;;;;;0.00;0.00;;;;;;;21.14;99.27;102226.28;5053411;28;20025;-51
2023/08/21 07:50:11;;;;;;;0.00;0.00;;;;;;;21.22;100.00;102224.56;5052437;28;20533;-49
2023/08/21 07:52:36;;;;;;;0.10;0.10;;;;;;;21.10;97.91;102223.66;5052780;28;20029;-50
2023/08/21 07:55:02;;;;;;;0.00;0.00;;;;;;;21.29;99.51;102225.53;5053127;28;20028;-47
2023/08/21 07:57:29;;;;;;;0.00;0.00;;;;;;;21.33;98.34;102222.06;5051334;28;20036;-48
2023/08/21 07:59:54;;;;;;;0.00;0.00;;;;;;;21.32;97.66;102225.53;5053126;28;20049;-51
2023/08/21 08:02:19;;;;;;;0.03;0.03;;;;;;;21.40;97.34;102222.97;5052494;28;20178;-50
2023/08/21 08:04:46;;;;;;;0.00;0.00;;;;;;;21.46;91.86;102219.50;5052147;28;20025;-47
2023/08/21 08:07:11;;;;;;;0.00;0.00;;;;;;;21.44;90.54;102231.72;5052636;28;20479;-47
2023/08/21 08:09:37;;;;;;;0.00;0.00;;;;;;;21.47;94.18;102231.75;5052562;28;20137;-50
2023/08/21 08:12:02;;;;;;;0.00;0.00;;;;;;;21.44;88.55;102240.47;5051827;28;20025;-47
2023/08/21 08:14:28;;;;;;;0.00;0.00;;;;;;;21.52;87.99;102244.03;5052294;28;20083;-50
2023/08/21 08:16:53;;;;;;;0.00;0.00;;;;;;;21.61;86.43;102237.97;5052661;28;20033;-49
2023/08/21 08:19:18;;;;;;;0.00;0.00;;;;;;;22.21;86.49;102240.03;5051807;28;20043;-48
2023/08/21 08:21:44;;;;;;;0.00;0.00;;;;;;;22.06;84.22;102235.56;5052760;28;20017;-45
2023/08/21 08:24:09;;;;;;;0.00;0.00;;;;;;;22.27;83.74;102234.78;5052633;28;20074;-47
2023/08/21 08:26:35;;;;;;;0.00;0.00;;;;;;;22.57;80.69;102238.38;5051318;28;20045;-47
2023/08/21 08:29:00;;;;;;;0.00;0.00;;;;;;;22.64;79.21;102237.50;5052699;28;20111;-48
2023/08/21 08:31:27;;;;;;;0.00;0.00;;;;;;;22.78;79.18;102247.19;5052125;28;20021;-48
2023/08/21 08:33:53;;;;;;;0.00;0.00;;;;;;;22.88;82.01;102243.69;5051776;28;20446;-50
2023/08/21 08:36:18;;;;;;;0.00;0.00;;;;;;;22.93;78.59;102236.66;5052207;28;20028;-48
2023/08/21 08:38:43;;;;;;;0.00;0.00;;;;;;;23.16;74.53;102236.69;5052623;28;20057;-47
2023/08/21 08:41:19;;;;;;;0.00;0.00;;;;;;;23.37;77.07;102241.91;5051673;28;20051;-48
2023/08/21 08:43:45;;;;;;;0.00;0.00;;;;;;;23.40;72.68;102234.91;5052721;28;20166;-47
2023/08/21 08:46:11;;;;;;;0.00;0.00;;;;;;;23.80;71.45;102232.16;5052357;28;20381;-47
2023/08/21 08:48:38;;;;;;;0.00;0.00;;;;;;;24.18;68.86;102238.16;5051660;28;20275;-46
2023/08/21 08:51:04;;;;;;;0.00;0.00;;;;;;;24.48;68.78;102247.66;5052467;28;20096;-47
2023/08/21 08:53:33;;;;;;;0.00;0.00;;;;;;;24.66;65.95;102251.06;5050937;28;20170;-45
2023/08/21 08:55:58;;;;;;;0.00;0.00;;;;;;;24.68;66.42;102248.44;5052093;28;20070;-48
2023/08/21 08:58:24;;;;;;;0.00;0.00;;;;;;;24.32;63.40;102244.25;5052190;28;20021;-47
2023/08/21 09:00:50;;;;;;;0.00;0.00;;;;;;;24.59;66.34;102239.66;5051711;28;20021;-49
2023/08/21 09:03:15;;;;;;;0.00;0.00;;;;;;;24.73;64.10;102247.53;5051953;28;20084;-49
2023/08/21 09:05:41;;;;;;;0.00;0.00;;;;;;;24.48;59.95;102258.22;5052044;28;20103;-46
2023/08/21 09:08:06;;;;;;;0.00;0.00;;;;;;;24.50;62.27;102250.28;5052709;28;20016;-48
2023/08/21 09:10:32;;;;;;;0.00;0.00;;;;;;;24.47;59.73;102240.63;5055674;28;20482;-45
2023/08/21 09:13:01;;;;;;;0.00;0.00;;;;;;;24.30;62.90;102242.50;5056002;28;20353;-49
2023/08/21 09:15:30;;;;;;;0.00;0.00;;;;;;;24.43;59.19;102251.22;5054952;28;20028;-47
2023/08/21 09:17:55;;;;;;;0.00;0.00;;;;;;;24.49;61.04;102244.16;5055859;28;20017;-46
2023/08/21 09:20:20;;;;;;;0.00;0.00;;;;;;;24.69;64.05;102237.00;5055510;28;20491;-50
2023/08/21 09:23:04;;;;;;;0.00;0.00;;;;;;;24.93;65.81;102233.31;5054888;28;20051;-46
2023/08/21 09:25:44;;;;;;;0.00;0.00;;;;;;;25.14;60.90;102237.53;5055383;28;20096;-46
2023/08/21 09:28:09;;;;;;;0.00;0.00;;;;;;;25.53;60.82;102243.31;5055653;28;20024;-47
2023/08/21 09:30:48;;;;;;;0.00;0.00;;;;;;;25.64;59.64;102241.44;5054549;28;20033;-49
2023/08/21 09:33:13;;;;;;;0.00;0.00;;;;;;;26.01;54.64;102231.31;5055076;28;20493;-46
2023/08/21 09:35:41;;;;;;;0.00;0.00;;;;;;;26.05;55.97;102228.63;5054599;28;20064;-46
2023/08/21 09:38:07;;;;;;;0.00;0.00;;;;;;;25.91;56.78;102228.81;5055651;28;20098;-47
2023/08/21 09:40:32;;;;;;;0.00;0.00;;;;;;;26.02;56.08;102233.06;5055290;28;20064;-49
2023/08/21 09:42:59;;;;;;;0.00;0.00;;;;;;;26.41;53.57;102238.72;5054584;28;20486;-50
2023/08/21 09:45:25;;;;;;;0.00;0.00;;;;;;;26.25;51.31;102235.44;5055055;28;20021;-50
2023/08/21 09:47:55;;;;;;;0.00;0.00;;;;;;;26.23;54.23;102235.44;5055247;28;20052;-47
2023/08/21 09:50:21;;;;;;;0.00;0.00;;;;;;;26.01;54.88;102236.59;5054036;28;20479;-50
2023/08/21 09:52:50;;;;;;;0.00;0.00;;;;;;;26.20;53.79;102232.84;5055017;28;20054;-49
2023/08/21 09:55:17;;;;;;;0.00;0.00;;;;;;;26.25;50.57;102225.72;5054971;28;20045;-51
2023/08/21 09:57:42;;;;;;;0.00;0.00;;;;;;;27.04;50.89;102239.50;5054181;28;20416;-46
2023/08/21 10:00:15;;;;;;;0.00;0.00;;;;;;;27.02;51.52;102222.78;5055001;28;20579;-49
2023/08/21 10:02:49;;;;;;;0.00;0.00;;;;;;;27.18;51.77;102231.31;5054977;28;20035;-50
2023/08/21 10:05:16;;;;;;;0.00;0.00;;;;;;;27.76;51.30;102227.56;5053830;28;20495;-50
2023/08/21 10:07:44;;;;;;;0.00;0.00;;;;;;;28.54;48.79;102229.38;5054965;28;20029;-47
2023/08/21 10:10:11;;;;;;;0.00;0.00;;;;;;;28.74;45.69;102226.28;5054721;28;20028;-46
2023/08/21 10:12:36;;;;;;;0.00;0.00;;;;;;;28.48;42.99;102220.72;5053588;28;20036;-50
2023/08/21 10:15:01;;;;;;;0.00;0.00;;;;;;;29.13;42.42;102222.66;5054648;28;20021;-49
2023/08/21 10:17:27;;;;;;;0.00;0.00;;;;;;;29.16;41.32;102219.91;5054284;28;20025;-51
2023/08/21 10:19:55;;;;;;;0.00;0.00;;;;;;;29.65;44.33;102214.16;5053314;28;20530;-49
2023/08/21 10:22:41;;;;;;;0.00;0.00;;;;;;;30.18;46.07;102213.50;5054348;28;20498;-50
2023/08/21 10:25:20;;;;;;;0.00;0.00;;;;;;;30.45;43.75;102213.53;5053898;28;20025;-49
2023/08/21 10:27:45;;;;;;;0.00;0.00;;;;;;;30.67;40.71;102221.69;5054338;28;20049;-50
2023/08/21 10:30:19;;;;;;;0.00;0.00;;;;;;;31.16;40.24;102228.00;5054727;28;20357;-45
2023/08/21 10:32:48;;;;;;;0.00;0.00;;;;;;;30.87;38.55;102224.56;5054028;28;20167;-46
2023/08/21 10:35:16;;;;;;;0.00;0.00;;;;;;;31.60;37.70;102221.97;5054107;28;20055;-46
2023/08/21 10:38:07;;;;;;;0.00;0.00;;;;;;;31.91;39.82;102219.97;5054432;28;20411;-49
2023/08/21 10:40:32;;;;;;;0.00;0.00;;;;;;;32.69;36.54;102217.75;5053346;28;20033;-51
2023/08/21 10:42:59;;;;;;;0.00;0.00;;;;;;;33.04;33.87;102218.94;5054266;28;20021;-46
2023/08/21 10:45:24;;;;;;;0.00;0.00;;;;;;;32.79;34.84;102222.66;5053785;28;20506;-51
2023/08/21 10:47:50;;;;;;;0.00;0.00;;;;;;;32.16;33.83;102215.41;5053287;28;20061;-50
2023/08/21 10:50:16;;;;;;;0.00;0.00;;;;;;;32.96;35.54;102221.06;5054262;28;20129;-46
2023/08/21 10:52:44;;;;;;;0.00;0.00;;;;;;;33.43;34.18;102227.94;5053986;28;20111;-50
2023/08/21 10:55:11;;;;;;;0.00;0.00;;;;;;;32.96;34.09;102231.75;5053346;28;20028;-51
2023/08/21 10:57:37;;;;;;;0.00;0.00;;;;;;;32.80;34.83;102234.22;5053877;28;20043;-46
2023/08/21 11:00:09;;;;;;;0.00;0.00;;;;;;;32.61;34.90;102234.09;5053211;28;20044;-49
2023/08/21 11:02:36;;;;;;;0.00;0.00;;;;;;;33.11;34.72;102225.72;5053473;28;20492;-48
2023/08/21 11:05:02;;;;;;;;;;;;;;;33.91;36.92;102220.41;5054100;28;20377;-48
2023/08/21 11:07:28;;;;;;;0.00;0.00;;;;;;;32.72;36.13;102226.50;5052833;28;19912;-46
2023/08/21 11:09:54;;;;;;;0.00;0.00;;;;;;;32.76;34.65;102220.13;5053673;28;20021;-48
2023/08/21 11:12:21;;;;;;;0.00;0.00;;;;;;;32.24;33.50;102224.91;5053305;28;20021;-50
2023/08/21 11:14:47;;;;;;;0.00;0.00;;;;;;;32.65;33.53;102214.34;5053101;28;20031;-48